sensor_id;sensor_type;location;lat;lon;timestamp;pressure;altitude;pressure_sealevel;temperature;humidity
35419;BME280;21525;41.240;16.500;2022-11-27T00:00:23;101901.47;;;19.05;84.38
35419;BME280;21525;41.240;16.500;2022-11-27T00:02:48;101900.97;;;18.92;87.29
35419;BME280;21525;41.240;16.500;2022-11-27T00:05:15;101898.75;;;19.08;86.74
35419;BME280;21525;41.240;16.500;2022-11-27T00:07:41;101886.94;;;18.90;88.85
35419;BME280;21525;41.240;16.500;2022-11-27T00:10:07;101893.66;;;19.02;86.85
35419;BME280;21525;41.240;16.500;2022-11-27T00:12:34;101899.41;;;19.16;86.08
35419;BME280;21525;41.240;16.500;2022-11-27T00:15:00;101902.63;;;19.24;84.54
35419;BME280;21525;41.240;16.500;2022-11-27T00:17:26;101894.00;;;18.90;85.28
35419;BME280;21525;41.240;16.500;2022-11-27T00:19:51;101885.59;;;19.36;84.65
35419;BME280;21525;41.240;16.500;2022-11-27T00:22:17;101889.00;;;19.39;83.88
35419;BME280;21525;41.240;16.500;2022-11-27T00:24:43;101886.66;;;19.01;87.62
35419;BME280;21525;41.240;16.500;2022-11-27T00:27:09;101875.31;;;19.27;87.08
35419;BME280;21525;41.240;16.500;2022-11-27T00:29:35;101881.03;;;19.13;86.74
35419;BME280;21525;41.240;16.500;2022-11-27T00:32:01;101882.53;;;18.91;87.45
35419;BME280;21525;41.240;16.500;2022-11-27T00:34:26;101883.69;;;18.82;88.23
35419;BME280;21525;41.240;16.500;2022-11-27T00:36:52;101870.97;;;19.54;83.51
35419;BME280;21525;41.240;16.500;2022-11-27T00:39:18;101865.72;;;19.80;81.22
35419;BME280;21525;41.240;16.500;2022-11-27T00:41:44;101872.56;;;20.12;81.03
35419;BME280;21525;41.240;16.500;2022-11-27T00:44:13;101857.75;;;19.82;83.23
35419;BME280;21525;41.240;16.500;2022-11-27T00:46:39;101861.13;;;19.85;81.98
35419;BME280;21525;41.240;16.500;2022-11-27T00:49:07;101853.72;;;20.21;80.16
35419;BME280;21525;41.240;16.500;2022-11-27T00:51:34;101862.72;;;20.16;78.53
35419;BME280;21525;41.240;16.500;2022-11-27T00:54:00;101859.44;;;20.34;78.44
35419;BME280;21525;41.240;16.500;2022-11-27T00:56:30;101856.59;;;20.65;75.56
35419;BME280;21525;41.240;16.500;2022-11-27T00:58:57;101863.16;;;20.78;74.03
35419;BME280;21525;41.240;16.500;2022-11-27T01:01:26;101868.25;;;20.59;74.94
35419;BME280;21525;41.240;16.500;2022-11-27T01:03:53;101867.38;;;20.59;76.98
35419;BME280;21525;41.240;16.500;2022-11-27T01:06:19;101857.59;;;20.84;75.63
35419;BME280;21525;41.240;16.500;2022-11-27T01:08:46;101855.38;;;20.73;75.18
35419;BME280;21525;41.240;16.500;2022-11-27T01:11:18;101866.84;;;20.49;75.36
35419;BME280;21525;41.240;16.500;2022-11-27T01:13:44;101885.25;;;19.17;82.11
35419;BME280;21525;41.240;16.500;2022-11-27T01:16:13;101886.69;;;18.99;84.14
35419;BME280;21525;41.240;16.500;2022-11-27T01:18:41;101900.38;;;19.12;84.57
35419;BME280;21525;41.240;16.500;2022-11-27T01:21:09;101914.09;;;18.63;87.24
35419;BME280;21525;41.240;16.500;2022-11-27T01:23:35;101920.16;;;17.60;81.70
35419;BME280;21525;41.240;16.500;2022-11-27T01:26:02;101891.44;;;18.87;71.31
35419;BME280;21525;41.240;16.500;2022-11-27T01:28:29;101888.63;;;19.52;64.56
35419;BME280;21525;41.240;16.500;2022-11-27T01:30:55;101889.84;;;19.12;64.88
35419;BME280;21525;41.240;16.500;2022-11-27T01:33:21;101891.91;;;19.86;60.56
35419;BME280;21525;41.240;16.500;2022-11-27T01:36:02;101887.47;;;20.39;58.79
35419;BME280;21525;41.240;16.500;2022-11-27T01:38:29;101880.75;;;20.54;58.29
35419;BME280;21525;41.240;16.500;2022-11-27T01:40:57;101874.81;;;20.23;57.33
35419;BME280;21525;41.240;16.500;2022-11-27T01:43:41;101878.50;;;19.92;56.65
35419;BME280;21525;41.240;16.500;2022-11-27T01:46:28;101874.75;;;19.45;58.21
35419;BME280;21525;41.240;16.500;2022-11-27T01:54:24;101875.03;;;19.64;61.21
35419;BME280;21525;41.240;16.500;2022-11-27T01:56:53;101881.44;;;19.83;61.21
35419;BME280;21525;41.240;16.500;2022-11-27T01:59:21;101881.28;;;19.04;62.32
35419;BME280;21525;41.240;16.500;2022-11-27T02:01:48;101890.03;;;18.10;59.96
35419;BME280;21525;41.240;16.500;2022-11-27T02:04:14;101879.34;;;18.49;60.87
35419;BME280;21525;41.240;16.500;2022-11-27T02:06:39;101883.88;;;19.05;62.74
35419;BME280;21525;41.240;16.500;2022-11-27T02:09:05;101887.03;;;18.87;60.95
35419;BME280;21525;41.240;16.500;2022-11-27T02:14:09;101899.22;;;18.60;60.67
35419;BME280;21525;41.240;16.500;2022-11-27T02:19:39;101917.34;;;19.03;59.67
35419;BME280;21525;41.240;16.500;2022-11-27T02:27:25;101919.69;;;19.71;68.03
35419;BME280;21525;41.240;16.500;2022-11-27T02:29:56;101907.88;;;19.55;71.55
35419;BME280;21525;41.240;16.500;2022-11-27T02:32:38;101914.56;;;19.93;70.46
35419;BME280;21525;41.240;16.500;2022-11-27T02:35:43;101920.75;;;19.07;74.78
35419;BME280;21525;41.240;16.500;2022-11-27T02:38:20;101911.78;;;19.42;73.16
35419;BME280;21525;41.240;16.500;2022-11-27T02:40:55;101915.88;;;18.62;77.58
35419;BME280;21525;41.240;16.500;2022-11-27T02:43:29;101909.28;;;18.46;79.50
35419;BME280;21525;41.240;16.500;2022-11-27T02:45:59;101919.38;;;18.29;82.16
35419;BME280;21525;41.240;16.500;2022-11-27T02:48:34;101903.28;;;19.03;75.55
35419;BME280;21525;41.240;16.500;2022-11-27T02:51:02;101898.78;;;18.77;77.43
35419;BME280;21525;41.240;16.500;2022-11-27T02:53:36;101904.03;;;19.08;75.80
35419;BME280;21525;41.240;16.500;2022-11-27T02:56:09;101904.28;;;18.99;76.34
35419;BME280;21525;41.240;16.500;2022-11-27T02:58:36;101900.72;;;19.29;70.76
35419;BME280;21525;41.240;16.500;2022-11-27T03:01:05;101906.78;;;19.33;65.65
35419;BME280;21525;41.240;16.500;2022-11-27T03:03:35;101900.34;;;19.71;66.66
35419;BME280;21525;41.240;16.500;2022-11-27T03:06:08;101913.19;;;19.82;67.73
35419;BME280;21525;41.240;16.500;2022-11-27T03:08:37;101913.88;;;19.60;68.59
35419;BME280;21525;41.240;16.500;2022-11-27T03:11:07;101923.88;;;19.20;73.01
35419;BME280;21525;41.240;16.500;2022-11-27T03:13:36;101918.13;;;19.64;71.73
35419;BME280;21525;41.240;16.500;2022-11-27T03:16:14;101931.03;;;18.85;76.38
35419;BME280;21525;41.240;16.500;2022-11-27T03:21:37;101924.84;;;18.86;77.87
35419;BME280;21525;41.240;16.500;2022-11-27T03:24:05;101943.06;;;18.95;76.27
35419;BME280;21525;41.240;16.500;2022-11-27T03:26:32;101942.94;;;19.00;78.67
35419;BME280;21525;41.240;16.500;2022-11-27T03:28:58;101940.44;;;19.25;76.79
35419;BME280;21525;41.240;16.500;2022-11-27T03:31:25;101935.28;;;19.20;76.55
35419;BME280;21525;41.240;16.500;2022-11-27T03:33:52;101939.09;;;18.81;78.94
35419;BME280;21525;41.240;16.500;2022-11-27T03:36:20;101947.56;;;18.58;82.01
35419;BME280;21525;41.240;16.500;2022-11-27T03:38:47;101944.84;;;19.24;79.04
35419;BME280;21525;41.240;16.500;2022-11-27T03:41:44;101945.34;;;19.37;75.79
35419;BME280;21525;41.240;16.500;2022-11-27T03:47:24;101936.09;;;18.93;77.56
35419;BME280;21525;41.240;16.500;2022-11-27T03:57:33;101950.72;;;18.73;78.59
35419;BME280;21525;41.240;16.500;2022-11-27T04:00:06;101957.94;;;19.27;72.05
35419;BME280;21525;41.240;16.500;2022-11-27T04:03:00;101949.53;;;19.44;74.20
35419;BME280;21525;41.240;16.500;2022-11-27T04:05:26;101948.41;;;19.53;73.99
35419;BME280;21525;41.240;16.500;2022-11-27T04:07:52;101949.03;;;19.31;75.06
35419;BME280;21525;41.240;16.500;2022-11-27T04:10:18;101958.13;;;18.58;79.69
35419;BME280;21525;41.240;16.500;2022-11-27T04:12:44;101959.25;;;18.83;80.60
35419;BME280;21525;41.240;16.500;2022-11-27T04:15:10;101966.75;;;18.97;81.04
35419;BME280;21525;41.240;16.500;2022-11-27T04:17:36;101963.44;;;18.89;78.79
35419;BME280;21525;41.240;16.500;2022-11-27T04:20:02;101968.13;;;19.10;76.62
35419;BME280;21525;41.240;16.500;2022-11-27T04:22:28;101968.72;;;18.89;73.16
35419;BME280;21525;41.240;16.500;2022-11-27T04:24:54;101970.66;;;18.50;75.54
35419;BME280;21525;41.240;16.500;2022-11-27T04:27:20;101961.47;;;18.66;75.41
35419;BME280;21525;41.240;16.500;2022-11-27T04:29:46;101969.53;;;18.24;74.56
35419;BME280;21525;41.240;16.500;2022-11-27T04:32:11;101973.03;;;18.91;73.23
35419;BME280;21525;41.240;16.500;2022-11-27T04:34:37;101974.44;;;18.73;74.07
35419;BME280;21525;41.240;16.500;2022-11-27T04:37:03;101985.94;;;17.60;83.98
35419;BME280;21525;41.240;16.500;2022-11-27T04:39:29;101990.00;;;18.49;83.23
35419;BME280;21525;41.240;16.500;2022-11-27T04:41:55;101995.91;;;18.57;84.07
35419;BME280;21525;41.240;16.500;2022-11-27T04:44:21;101997.34;;;18.36;85.08
35419;BME280;21525;41.240;16.500;2022-11-27T04:46:48;102007.84;;;18.37;87.14
35419;BME280;21525;41.240;16.500;2022-11-27T04:49:14;102005.16;;;18.39;88.48
35419;BME280;21525;41.240;16.500;2022-11-27T04:51:39;102006.91;;;18.40;87.79
35419;BME280;21525;41.240;16.500;2022-11-27T04:54:05;102011.03;;;18.15;88.73
35419;BME280;21525;41.240;16.500;2022-11-27T04:56:31;102010.22;;;18.48;84.59
35419;BME280;21525;41.240;16.500;2022-11-27T04:58:57;102014.63;;;18.48;85.25
35419;BME280;21525;41.240;16.500;2022-11-27T05:01:22;102021.13;;;19.01;81.97
35419;BME280;21525;41.240;16.500;2022-11-27T05:03:48;102028.22;;;18.66;83.30
35419;BME280;21525;41.240;16.500;2022-11-27T05:06:14;102039.00;;;18.54;85.30
35419;BME280;21525;41.240;16.500;2022-11-27T05:08:40;102042.56;;;18.53;86.76
35419;BME280;21525;41.240;16.500;2022-11-27T05:11:10;102045.19;;;18.53;86.59
35419;BME280;21525;41.240;16.500;2022-11-27T05:13:37;102052.19;;;18.54;86.00
35419;BME280;21525;41.240;16.500;2022-11-27T05:16:03;102047.16;;;18.45;87.56
35419;BME280;21525;41.240;16.500;2022-11-27T05:18:29;102055.97;;;17.68;91.74
35419;BME280;21525;41.240;16.500;2022-11-27T05:20:57;102056.13;;;18.01;91.71
35419;BME280;21525;41.240;16.500;2022-11-27T05:23:24;102066.44;;;17.70;95.29
35419;BME280;21525;41.240;16.500;2022-11-27T05:25:51;102061.63;;;18.27;89.92
35419;BME280;21525;41.240;16.500;2022-11-27T05:28:17;102065.25;;;18.23;91.43
35419;BME280;21525;41.240;16.500;2022-11-27T05:30:43;102056.78;;;18.10;88.16
35419;BME280;21525;41.240;16.500;2022-11-27T05:33:09;102047.66;;;18.24;87.08
35419;BME280;21525;41.240;16.500;2022-11-27T05:35:34;102042.66;;;18.50;85.48
35419;BME280;21525;41.240;16.500;2022-11-27T05:38:00;102051.50;;;18.83;77.48
35419;BME280;21525;41.240;16.500;2022-11-27T05:40:26;102064.88;;;18.75;73.31
35419;BME280;21525;41.240;16.500;2022-11-27T05:42:52;102048.00;;;19.15;68.05
35419;BME280;21525;41.240;16.500;2022-11-27T05:45:17;102047.09;;;18.84;64.24
35419;BME280;21525;41.240;16.500;2022-11-27T05:47:43;102056.06;;;18.41;69.50
35419;BME280;21525;41.240;16.500;2022-11-27T05:50:09;102042.06;;;19.07;67.45
35419;BME280;21525;41.240;16.500;2022-11-27T05:52:35;102039.31;;;19.11;65.21
35419;BME280;21525;41.240;16.500;2022-11-27T05:55:01;102037.19;;;18.92;65.94
35419;BME280;21525;41.240;16.500;2022-11-27T05:57:26;102045.56;;;18.75;65.53
35419;BME280;21525;41.240;16.500;2022-11-27T05:59:53;102038.91;;;19.25;65.90
35419;BME280;21525;41.240;16.500;2022-11-27T06:02:19;102048.91;;;19.14;67.21
35419;BME280;21525;41.240;16.500;2022-11-27T06:04:44;102057.81;;;19.10;70.43
35419;BME280;21525;41.240;16.500;2022-11-27T06:07:10;102061.66;;;18.97;74.15
35419;BME280;21525;41.240;16.500;2022-11-27T06:09:36;102068.91;;;18.18;81.99
35419;BME280;21525;41.240;16.500;2022-11-27T06:12:02;102076.38;;;18.36;84.01
35419;BME280;21525;41.240;16.500;2022-11-27T06:14:28;102072.13;;;18.29;86.30
35419;BME280;21525;41.240;16.500;2022-11-27T06:16:56;102077.38;;;18.30;88.01
35419;BME280;21525;41.240;16.500;2022-11-27T06:19:22;102082.06;;;18.53;86.39
35419;BME280;21525;41.240;16.500;2022-11-27T06:21:48;102088.16;;;18.20;88.97
35419;BME280;21525;41.240;16.500;2022-11-27T06:24:14;102081.81;;;18.28;89.19
35419;BME280;21525;41.240;16.500;2022-11-27T06:26:39;102081.25;;;17.75;93.55
35419;BME280;21525;41.240;16.500;2022-11-27T06:29:05;102086.75;;;18.05;93.09
35419;BME280;21525;41.240;16.500;2022-11-27T06:31:32;102081.00;;;18.25;92.74
35419;BME280;21525;41.240;16.500;2022-11-27T06:33:58;102084.91;;;17.68;96.25
35419;BME280;21525;41.240;16.500;2022-11-27T06:36:29;102081.97;;;18.21;92.11
35419;BME280;21525;41.240;16.500;2022-11-27T06:38:55;102085.56;;;18.18;91.97
35419;BME280;21525;41.240;16.500;2022-11-27T06:41:22;102078.75;;;18.09;91.86
35419;BME280;21525;41.240;16.500;2022-11-27T06:43:49;102081.84;;;17.88;93.95
35419;BME280;21525;41.240;16.500;2022-11-27T06:46:18;102077.59;;;17.83;92.95
35419;BME280;21525;41.240;16.500;2022-11-27T06:48:46;102074.13;;;17.81;92.24
35419;BME280;21525;41.240;16.500;2022-11-27T06:51:14;102085.31;;;18.29;89.30
35419;BME280;21525;41.240;16.500;2022-11-27T06:53:41;102088.94;;;18.23;90.95
35419;BME280;21525;41.240;16.500;2022-11-27T06:56:10;102078.13;;;18.35;89.75
35419;BME280;21525;41.240;16.500;2022-11-27T06:58:36;102077.63;;;17.81;92.27
35419;BME280;21525;41.240;16.500;2022-11-27T07:01:04;102078.84;;;18.05;90.68
35419;BME280;21525;41.240;16.500;2022-11-27T07:03:30;102083.19;;;18.07;90.59
35419;BME280;21525;41.240;16.500;2022-11-27T07:06:00;102087.38;;;17.76;92.60
35419;BME280;21525;41.240;16.500;2022-11-27T07:08:26;102084.34;;;17.53;93.94
35419;BME280;21525;41.240;16.500;2022-11-27T07:10:52;102087.47;;;17.71;93.11
35419;BME280;21525;41.240;16.500;2022-11-27T07:13:18;102082.72;;;17.87;90.92
35419;BME280;21525;41.240;16.500;2022-11-27T07:15:44;102087.72;;;17.58;93.58
35419;BME280;21525;41.240;16.500;2022-11-27T07:18:10;102087.50;;;17.70;93.33
35419;BME280;21525;41.240;16.500;2022-11-27T07:20:35;102083.88;;;18.16;89.91
35419;BME280;21525;41.240;16.500;2022-11-27T07:23:01;102082.44;;;18.01;91.63
35419;BME280;21525;41.240;16.500;2022-11-27T07:25:27;102077.19;;;18.01;92.02
35419;BME280;21525;41.240;16.500;2022-11-27T07:27:54;102080.56;;;17.64;92.75
35419;BME280;21525;41.240;16.500;2022-11-27T07:30:20;102080.22;;;17.83;92.65
35419;BME280;21525;41.240;16.500;2022-11-27T07:32:46;102081.97;;;17.84;91.74
35419;BME280;21525;41.240;16.500;2022-11-27T07:35:11;102072.50;;;18.13;92.58
35419;BME280;21525;41.240;16.500;2022-11-27T07:37:37;102077.16;;;18.39;88.75
35419;BME280;21525;41.240;16.500;2022-11-27T07:40:03;102073.88;;;18.30;89.15
35419;BME280;21525;41.240;16.500;2022-11-27T07:42:29;102069.03;;;18.49;88.14
35419;BME280;21525;41.240;16.500;2022-11-27T07:44:55;102065.38;;;18.19;89.48
35419;BME280;21525;41.240;16.500;2022-11-27T07:47:21;102073.78;;;18.33;90.11
35419;BME280;21525;41.240;16.500;2022-11-27T07:49:46;102072.94;;;18.69;86.55
35419;BME280;21525;41.240;16.500;2022-11-27T07:52:12;102062.53;;;18.63;86.39
35419;BME280;21525;41.240;16.500;2022-11-27T07:54:38;102057.72;;;18.45;86.50
35419;BME280;21525;41.240;16.500;2022-11-27T07:57:04;102062.66;;;18.57;85.16
35419;BME280;21525;41.240;16.500;2022-11-27T07:59:29;102069.66;;;18.58;86.46
35419;BME280;21525;41.240;16.500;2022-11-27T08:01:55;102064.84;;;18.40;86.99
35419;BME280;21525;41.240;16.500;2022-11-27T08:04:21;102070.25;;;18.34;86.27
35419;BME280;21525;41.240;16.500;2022-11-27T08:06:48;102064.28;;;18.64;86.51
35419;BME280;21525;41.240;16.500;2022-11-27T08:09:14;102066.59;;;18.41;87.21
35419;BME280;21525;41.240;16.500;2022-11-27T08:11:40;102073.75;;;18.71;85.70
35419;BME280;21525;41.240;16.500;2022-11-27T08:14:06;102068.50;;;18.34;87.44
35419;BME280;21525;41.240;16.500;2022-11-27T08:16:34;102066.41;;;18.84;86.62
35419;BME280;21525;41.240;16.500;2022-11-27T08:19:00;102062.63;;;18.59;84.94
35419;BME280;21525;41.240;16.500;2022-11-27T08:21:26;102067.84;;;18.62;86.47
35419;BME280;21525;41.240;16.500;2022-11-27T08:23:52;102076.22;;;18.79;84.03
35419;BME280;21525;41.240;16.500;2022-11-27T08:26:19;102075.41;;;18.75;84.95
35419;BME280;21525;41.240;16.500;2022-11-27T08:28:45;102071.63;;;19.18;82.37
35419;BME280;21525;41.240;16.500;2022-11-27T08:31:13;102070.31;;;19.02;83.22
35419;BME280;21525;41.240;16.500;2022-11-27T08:33:39;102070.44;;;18.63;85.34
35419;BME280;21525;41.240;16.500;2022-11-27T08:36:06;102080.66;;;18.77;86.73
35419;BME280;21525;41.240;16.500;2022-11-27T08:38:32;102079.38;;;18.92;84.24
35419;BME280;21525;41.240;16.500;2022-11-27T08:41:03;102089.16;;;18.87;85.94
35419;BME280;21525;41.240;16.500;2022-11-27T08:43:29;102083.47;;;19.03;84.16
35419;BME280;21525;41.240;16.500;2022-11-27T08:45:55;102086.19;;;19.00;82.86
35419;BME280;21525;41.240;16.500;2022-11-27T08:48:22;102089.84;;;19.27;82.00
35419;BME280;21525;41.240;16.500;2022-11-27T08:50:48;102095.03;;;19.30;80.93
35419;BME280;21525;41.240;16.500;2022-11-27T08:53:15;102091.25;;;19.08;82.98
35419;BME280;21525;41.240;16.500;2022-11-27T08:55:41;102092.31;;;19.33;82.72
35419;BME280;21525;41.240;16.500;2022-11-27T08:58:08;102090.53;;;19.34;81.70
35419;BME280;21525;41.240;16.500;2022-11-27T09:00:34;102094.34;;;19.24;81.93
35419;BME280;21525;41.240;16.500;2022-11-27T09:03:01;102097.34;;;19.42;81.26
35419;BME280;21525;41.240;16.500;2022-11-27T09:05:28;102109.34;;;19.22;82.12
35419;BME280;21525;41.240;16.500;2022-11-27T09:07:54;102093.81;;;19.43;81.11
35419;BME280;21525;41.240;16.500;2022-11-27T09:10:20;102092.00;;;19.45;80.65
35419;BME280;21525;41.240;16.500;2022-11-27T09:12:48;102096.44;;;19.43;81.43
35419;BME280;21525;41.240;16.500;2022-11-27T09:15:14;102103.38;;;19.15;81.20
35419;BME280;21525;41.240;16.500;2022-11-27T09:17:40;102097.09;;;19.50;80.53
35419;BME280;21525;41.240;16.500;2022-11-27T09:20:06;102101.84;;;19.39;81.50
35419;BME280;21525;41.240;16.500;2022-11-27T09:22:33;102099.00;;;19.46;79.79
35419;BME280;21525;41.240;16.500;2022-11-27T09:24:59;102098.50;;;19.65;79.16
35419;BME280;21525;41.240;16.500;2022-11-27T09:27:25;102101.19;;;19.31;81.11
35419;BME280;21525;41.240;16.500;2022-11-27T09:29:52;102100.16;;;19.04;82.18
35419;BME280;21525;41.240;16.500;2022-11-27T09:32:18;102088.94;;;19.28;81.73
35419;BME280;21525;41.240;16.500;2022-11-27T09:34:44;102091.34;;;19.05;81.98
35419;BME280;21525;41.240;16.500;2022-11-27T09:37:11;102085.63;;;19.82;79.22
35419;BME280;21525;41.240;16.500;2022-11-27T09:39:36;102086.72;;;19.76;78.34
35419;BME280;21525;41.240;16.500;2022-11-27T09:42:04;102085.97;;;20.01;78.18
35419;BME280;21525;41.240;16.500;2022-11-27T09:44:38;102091.53;;;19.62;79.04
35419;BME280;21525;41.240;16.500;2022-11-27T09:52:41;102075.34;;;20.02;77.28
35419;BME280;21525;41.240;16.500;2022-11-27T09:55:41;102077.84;;;20.35;76.84
35419;BME280;21525;41.240;16.500;2022-11-27T09:58:35;102071.41;;;20.45;75.51
35419;BME280;21525;41.240;16.500;2022-11-27T10:01:24;102074.16;;;20.12;76.10
35419;BME280;21525;41.240;16.500;2022-11-27T10:03:52;102071.13;;;20.25;74.49
35419;BME280;21525;41.240;16.500;2022-11-27T10:11:55;102061.81;;;21.17;71.55
35419;BME280;21525;41.240;16.500;2022-11-27T10:17:11;102053.25;;;21.59;69.35
35419;BME280;21525;41.240;16.500;2022-11-27T10:22:22;102048.47;;;21.20;66.52
35419;BME280;21525;41.240;16.500;2022-11-27T10:27:41;102040.97;;;21.09;66.10
35419;BME280;21525;41.240;16.500;2022-11-27T10:30:14;102039.28;;;21.32;65.07
35419;BME280;21525;41.240;16.500;2022-11-27T10:32:41;102033.34;;;21.00;67.50
35419;BME280;21525;41.240;16.500;2022-11-27T10:35:13;102040.31;;;21.51;66.17
35419;BME280;21525;41.240;16.500;2022-11-27T10:37:44;102028.34;;;21.41;66.28
35419;BME280;21525;41.240;16.500;2022-11-27T10:45:51;102014.16;;;22.32;59.71
35419;BME280;21525;41.240;16.500;2022-11-27T10:48:19;102019.19;;;21.50;61.38
35419;BME280;21525;41.240;16.500;2022-11-27T10:50:45;102013.44;;;21.38;61.18
35419;BME280;21525;41.240;16.500;2022-11-27T10:53:34;102000.72;;;22.15;59.20
35419;BME280;21525;41.240;16.500;2022-11-27T11:01:14;101996.78;;;22.25;59.12
35419;BME280;21525;41.240;16.500;2022-11-27T11:03:39;101989.00;;;22.21;57.54
35419;BME280;21525;41.240;16.500;2022-11-27T11:06:28;101987.56;;;22.34;57.40
35419;BME280;21525;41.240;16.500;2022-11-27T11:09:12;101991.81;;;22.58;56.20
35419;BME280;21525;41.240;16.500;2022-11-27T11:11:38;101994.31;;;21.99;57.74
35419;BME280;21525;41.240;16.500;2022-11-27T11:16:46;101993.41;;;22.42;57.29
35419;BME280;21525;41.240;16.500;2022-11-27T11:19:30;101984.38;;;22.46;57.53
35419;BME280;21525;41.240;16.500;2022-11-27T11:22:08;101984.16;;;22.72;56.16
35419;BME280;21525;41.240;16.500;2022-11-27T11:24:37;101979.03;;;22.68;56.13
35419;BME280;21525;41.240;16.500;2022-11-27T11:27:14;101974.59;;;22.68;55.39
35419;BME280;21525;41.240;16.500;2022-11-27T11:32:22;101972.22;;;22.62;53.04
35419;BME280;21525;41.240;16.500;2022-11-27T11:40:18;101956.44;;;22.39;53.57
35419;BME280;21525;41.240;16.500;2022-11-27T11:42:52;101952.91;;;22.99;53.43
35419;BME280;21525;41.240;16.500;2022-11-27T11:45:20;101945.16;;;22.54;53.42
35419;BME280;21525;41.240;16.500;2022-11-27T11:47:49;101935.94;;;22.83;53.56
35419;BME280;21525;41.240;16.500;2022-11-27T11:52:58;101928.59;;;23.27;52.39
35419;BME280;21525;41.240;16.500;2022-11-27T11:55:47;101931.44;;;23.41;51.49
35419;BME280;21525;41.240;16.500;2022-11-27T12:00:55;101930.03;;;23.53;51.24
35419;BME280;21525;41.240;16.500;2022-11-27T12:06:37;101916.13;;;23.84;49.71
35419;BME280;21525;41.240;16.500;2022-11-27T12:09:20;101926.72;;;22.92;51.03
35419;BME280;21525;41.240;16.500;2022-11-27T12:11:53;101921.53;;;23.07;50.65
35419;BME280;21525;41.240;16.500;2022-11-27T12:14:46;101916.41;;;23.23;50.02
35419;BME280;21525;41.240;16.500;2022-11-27T12:20:20;101899.78;;;23.74;49.67
35419;BME280;21525;41.240;16.500;2022-11-27T12:25:40;101897.78;;;23.42;48.62
35419;BME280;21525;41.240;16.500;2022-11-27T12:34:31;101906.44;;;23.83;47.78
35419;BME280;21525;41.240;16.500;2022-11-27T12:37:46;101906.72;;;23.60;48.27
35419;BME280;21525;41.240;16.500;2022-11-27T12:43:29;101889.88;;;24.12;47.04
35419;BME280;21525;41.240;16.500;2022-11-27T12:48:36;101897.38;;;23.70;47.14
35419;BME280;21525;41.240;16.500;2022-11-27T12:51:18;101886.72;;;23.51;47.24
35419;BME280;21525;41.240;16.500;2022-11-27T12:53:47;101889.84;;;23.23;47.73
35419;BME280;21525;41.240;16.500;2022-11-27T12:59:02;101893.94;;;22.93;48.47
35419;BME280;21525;41.240;16.500;2022-11-27T13:01:35;101892.34;;;22.89;49.16
35419;BME280;21525;41.240;16.500;2022-11-27T13:06:52;101892.53;;;22.45;49.02
35419;BME280;21525;41.240;16.500;2022-11-27T13:09:41;101901.50;;;21.36;50.55
35419;BME280;21525;41.240;16.500;2022-11-27T13:12:16;101904.50;;;18.91;61.45
35419;BME280;21525;41.240;16.500;2022-11-27T13:14:45;101901.09;;;19.17;63.52
35419;BME280;21525;41.240;16.500;2022-11-27T13:17:16;101903.41;;;19.84;61.39
35419;BME280;21525;41.240;16.500;2022-11-27T13:19:49;101903.91;;;19.12;65.41
35419;BME280;21525;41.240;16.500;2022-11-27T13:22:21;101900.09;;;18.92;66.18
35419;BME280;21525;41.240;16.500;2022-11-27T13:24:53;101897.97;;;19.62;63.60
35419;BME280;21525;41.240;16.500;2022-11-27T13:27:26;101901.34;;;19.67;64.74
35419;BME280;21525;41.240;16.500;2022-11-27T13:32:30;101912.03;;;19.05;70.74
35419;BME280;21525;41.240;16.500;2022-11-27T13:35:01;101927.41;;;18.89;71.21
35419;BME280;21525;41.240;16.500;2022-11-27T13:37:38;101929.22;;;17.87;70.31
35419;BME280;21525;41.240;16.500;2022-11-27T13:42:42;101925.88;;;17.41;61.58
35419;BME280;21525;41.240;16.500;2022-11-27T13:45:24;101930.25;;;18.17;60.64
35419;BME280;21525;41.240;16.500;2022-11-27T13:47:51;101919.63;;;18.85;60.19
35419;BME280;21525;41.240;16.500;2022-11-27T13:50:19;101905.69;;;18.49;58.47
35419;BME280;21525;41.240;16.500;2022-11-27T13:53:04;101892.47;;;19.12;57.01
35419;BME280;21525;41.240;16.500;2022-11-27T13:55:32;101887.31;;;19.37;56.00
35419;BME280;21525;41.240;16.500;2022-11-27T13:57:59;101896.59;;;19.78;54.44
35419;BME280;21525;41.240;16.500;2022-11-27T14:00:35;101897.56;;;20.27;53.79
35419;BME280;21525;41.240;16.500;2022-11-27T14:03:02;101891.91;;;20.12;53.42
35419;BME280;21525;41.240;16.500;2022-11-27T14:05:42;101888.84;;;20.50;52.72
35419;BME280;21525;41.240;16.500;2022-11-27T14:08:28;101892.47;;;19.96;53.27
35419;BME280;21525;41.240;16.500;2022-11-27T14:11:15;101891.56;;;19.97;53.49
35419;BME280;21525;41.240;16.500;2022-11-27T14:13:43;101895.81;;;20.01;54.82
35419;BME280;21525;41.240;16.500;2022-11-27T14:16:22;101892.56;;;19.93;55.34
35419;BME280;21525;41.240;16.500;2022-11-27T14:18:51;101894.41;;;20.16;56.50
35419;BME280;21525;41.240;16.500;2022-11-27T14:21:41;101907.25;;;20.01;58.14
35419;BME280;21525;41.240;16.500;2022-11-27T14:26:56;101906.69;;;19.92;61.58
35419;BME280;21525;41.240;16.500;2022-11-27T14:29:27;101904.19;;;20.13;60.19
35419;BME280;21525;41.240;16.500;2022-11-27T14:32:01;101912.84;;;20.17;60.67
35419;BME280;21525;41.240;16.500;2022-11-27T14:34:31;101907.97;;;19.52;62.17
35419;BME280;21525;41.240;16.500;2022-11-27T14:36:59;101908.72;;;19.56;62.51
35419;BME280;21525;41.240;16.500;2022-11-27T14:39:33;101902.22;;;19.67;64.02
35419;BME280;21525;41.240;16.500;2022-11-27T14:42:01;101912.84;;;19.36;65.13